Time,TemperatureF,DewpointF,PressureIn,WindDirection,WindDirectionDegrees,WindSpeedMPH,WindSpeedGustMPH,Humidity,HourlyPrecipIn,Conditions,Clouds,dailyrainin,SoftwareType,DateUTC
2013-06-30 00:00:00,61.1,59.4,29.72,ENE,62,0.0,0.0,94,0.00,,SKC,0.00,VWS V14.01,2013-06-30 04:00:00,
2013-06-30 00:01:00,61.1,59.4,29.72,ENE,62,0.0,0.0,94,0.00,,SKC,0.00,VWS V14.01,2013-06-30 04:01:00,
2013-06-30 00:06:00,61.1,59.4,29.71,ENE,62,0.0,0.0,94,0.00,,SKC,0.00,VWS V14.01,2013-06-30 04:06:00,
2013-06-30 00:11:00,61.0,59.3,29.72,ENE,62,0.0,0.0,94,0.00,,SKC,0.00,VWS V14.01,2013-06-30 04:11:00,
2013-06-30 00:16:00,61.0,59.6,29.72,ENE,63,0.0,0.0,95,0.00,,SKC,0.00,VWS V14.01,2013-06-30 04:16:00,
2013-06-30 00:21:00,61.1,59.7,29.72,ENE,62,0.0,0.0,95,0.00,,SKC,0.00,VWS V14.01,2013-06-30 04:21:00,
2013-06-30 00:26:00,61.1,59.7,29.72,ENE,62,0.0,0.0,95,0.00,,SKC,0.00,VWS V14.01,2013-06-30 04:26:00,
2013-06-30 00:30:00,61.0,59.6,29.72,ENE,62,0.0,0.0,95,0.00,,SKC,0.00,VWS V14.01,2013-06-30 04:30:00,
2013-06-30 00:31:00,61.0,59.6,29.72,ENE,62,0.0,0.0,95,0.00,,SKC,0.00,VWS V14.01,2013-06-30 04:31:00,
2013-06-30 00:36:00,60.8,59.4,29.72,ENE,62,0.0,0.0,95,0.00,,SKC,0.00,VWS V14.01,2013-06-30 04:36:00,
2013-06-30 00:41:00,60.8,59.4,29.72,ENE,62,0.0,0.0,95,0.00,,SKC,0.00,VWS V14.01,2013-06-30 04:41:00,
2013-06-30 00:46:00,60.6,59.2,29.72,ENE,62,0.0,1.0,95,0.00,,SKC,0.00,VWS V14.01,2013-06-30 04:46:00,
2013-06-30 00:51:00,60.5,59.1,29.72,ENE,62,0.0,1.0,95,0.00,,SKC,0.00,VWS V14.01,2013-06-30 04:51:00,
2013-06-30 00:56:00,60.4,59.0,29.72,ENE,62,0.0,1.0,95,0.00,,SKC,0.00,VWS V14.01,2013-06-30 04:56:00,
2013-06-30 01:00:00,60.3,59.2,29.72,ENE,62,0.0,1.0,96,0.00,,SKC,0.00,VWS V14.01,2013-06-30 05:00:00,
2013-06-30 01:01:00,60.3,59.2,29.72,ENE,62,0.0,0.0,96,0.00,,SKC,0.00,VWS V14.01,2013-06-30 05:01:00,
2013-06-30 01:06:00,60.3,59.2,29.72,ENE,62,0.0,0.0,96,0.00,,SKC,0.00,VWS V14.01,2013-06-30 05:06:00,
2013-06-30 01:11:00,60.3,59.2,29.72,ENE,62,0.0,0.0,96,0.00,,SKC,0.00,VWS V14.01,2013-06-30 05:11:00,
2013-06-30 01:16:00,60.3,59.2,29.72,ENE,62,1.0,1.0,96,0.00,,SKC,0.00,VWS V14.01,2013-06-30 05:16:00,
2013-06-30 01:21:00,60.3,59.2,29.72,ENE,62,0.0,1.0,96,0.00,,SKC,0.00,VWS V14.01,2013-06-30 05:21:00,
2013-06-30 01:26:00,60.2,59.1,29.72,ENE,63,0.0,1.0,96,0.00,,SKC,0.00,VWS V14.01,2013-06-30 05:26:00,
2013-06-30 01:30:00,60.1,59.0,29.72,ENE,63,0.0,1.0,96,0.00,,SKC,0.00,VWS V14.01,2013-06-30 05:30:00,
2013-06-30 01:31:00,60.1,59.0,29.72,ENE,63,0.0,1.0,96,0.00,,SKC,0.00,VWS V14.01,2013-06-30 05:31:00,
2013-06-30 01:36:00,60.0,58.9,29.72,ENE,63,0.0,1.0,96,0.00,,SKC,0.00,VWS V14.01,2013-06-30 05:36:00,
2013-06-30 01:41:00,60.0,58.9,29.72,ENE,63,0.0,1.0,96,0.00,,SKC,0.00,VWS V14.01,2013-06-30 05:41:00,
2013-06-30 01:46:00,59.9,58.8,29.72,ENE,62,0.0,1.0,96,0.00,,SKC,0.00,VWS V14.01,2013-06-30 05:46:00,
2013-06-30 01:51:00,59.8,58.7,29.72,ENE,63,0.0,1.0,96,0.00,,SKC,0.00,VWS V14.01,2013-06-30 05:51:00,
2013-06-30 01:56:00,59.8,59.0,29.72,ENE,63,0.0,1.0,97,0.00,,SKC,0.00,VWS V14.01,2013-06-30 05:56:00,
2013-06-30 02:00:00,59.7,58.8,29.72,ENE,63,0.0,1.0,97,0.00,,SKC,0.00,VWS V14.01,2013-06-30 06:00:00,
2013-06-30 02:01:00,59.7,58.6,29.72,ENE,62,0.0,0.0,96,0.00,,SKC,0.00,VWS V14.01,2013-06-30 06:01:00,
2013-06-30 02:06:00,59.7,58.8,29.72,ENE,62,0.0,0.0,97,0.00,,SKC,0.00,VWS V14.01,2013-06-30 06:06:00,
2013-06-30 02:11:00,59.6,58.8,29.72,ENE,62,0.0,0.0,97,0.00,,SKC,0.00,VWS V14.01,2013-06-30 06:11:00,
2013-06-30 02:16:00,59.6,58.8,29.72,ENE,62,0.0,0.0,97,0.00,,SKC,0.00,VWS V14.01,2013-06-30 06:16:00,
2013-06-30 02:21:00,59.4,58.5,29.72,ENE,62,0.0,0.0,97,0.00,,SKC,0.00,VWS V14.01,2013-06-30 06:21:00,
2013-06-30 02:26:00,59.3,58.5,29.72,ENE,63,0.0,0.0,97,0.00,,SKC,0.00,VWS V14.01,2013-06-30 06:26:00,
2013-06-30 02:30:00,59.3,58.5,29.72,ENE,63,0.0,1.0,97,0.00,,SKC,0.00,VWS V14.01,2013-06-30 06:30:00,
2013-06-30 02:31:00,59.3,58.5,29.72,ENE,62,0.0,0.0,97,0.00,,SKC,0.00,VWS V14.01,2013-06-30 06:31:00,
2013-06-30 02:36:00,59.2,58.3,29.72,ENE,62,0.0,0.0,97,0.00,,SKC,0.00,VWS V14.01,2013-06-30 06:36:00,
2013-06-30 02:41:00,59.1,58.2,29.72,ENE,62,0.0,0.0,97,0.00,,SKC,0.00,VWS V14.01,2013-06-30 06:41:00,
2013-06-30 02:46:00,58.9,58.0,29.72,ENE,62,0.0,1.0,97,0.00,,SKC,0.00,VWS V14.01,2013-06-30 06:46:00,
2013-06-30 02:50:00,59.0,58.2,29.72,ENE,62,0.0,1.0,97,0.00,,SKC,0.00,VWS V14.01,2013-06-30 06:50:00,
2013-06-30 02:55:00,58.9,58.0,29.72,ENE,63,0.0,1.0,97,0.00,,SKC,0.00,VWS V14.01,2013-06-30 06:55:00,
2013-06-30 03:00:00,58.8,58.0,29.72,ENE,63,0.0,0.0,97,0.00,,SKC,0.00,VWS V14.01,2013-06-30 07:00:00,
2013-06-30 03:05:00,58.6,57.8,29.72,ENE,62,0.0,0.0,97,0.00,,SKC,0.00,VWS V14.01,2013-06-30 07:05:00,
2013-06-30 03:10:00,58.5,57.7,29.72,ENE,63,0.0,0.0,97,0.00,,SKC,0.00,VWS V14.01,2013-06-30 07:10:00,
2013-06-30 03:15:00,58.6,58.0,29.72,ENE,62,0.0,0.0,98,0.00,,SKC,0.00,VWS V14.01,2013-06-30 07:15:00,
2013-06-30 03:20:00,58.5,57.9,29.72,ENE,63,0.0,0.0,98,0.00,,SKC,0.00,VWS V14.01,2013-06-30 07:20:00,
2013-06-30 03:25:00,58.4,57.8,29.72,ENE,63,0.0,0.0,98,0.00,,SKC,0.00,VWS V14.01,2013-06-30 07:25:00,
2013-06-30 03:26:00,58.4,57.8,29.72,ENE,62,0.0,0.0,98,0.00,,SKC,0.00,VWS V14.01,2013-06-30 07:26:00,
2013-06-30 03:30:00,58.4,57.8,29.72,ENE,63,0.0,0.0,98,0.00,,SKC,0.00,VWS V14.01,2013-06-30 07:30:00,
2013-06-30 03:31:00,58.5,57.9,29.72,ENE,62,0.0,0.0,98,0.00,,SKC,0.00,VWS V14.01,2013-06-30 07:31:00,
2013-06-30 03:36:00,58.5,57.9,29.72,ENE,63,0.0,0.0,98,0.00,,SKC,0.00,VWS V14.01,2013-06-30 07:36:00,
2013-06-30 03:40:00,58.4,57.8,29.72,ENE,62,0.0,0.0,98,0.00,,SKC,0.00,VWS V14.01,2013-06-30 07:40:00,
2013-06-30 03:45:00,58.4,57.8,29.72,ENE,63,0.0,0.0,98,0.00,,SKC,0.00,VWS V14.01,2013-06-30 07:45:00,
2013-06-30 03:50:00,58.3,57.7,29.71,ENE,63,0.0,0.0,98,0.00,,SKC,0.00,VWS V14.01,2013-06-30 07:50:00,
2013-06-30 03:55:00,58.3,57.7,29.71,ENE,63,0.0,0.0,98,0.00,,SKC,0.00,VWS V14.01,2013-06-30 07:55:00,
2013-06-30 04:00:00,58.1,57.5,29.71,ENE,62,0.0,0.0,98,0.00,,SKC,0.00,VWS V14.01,2013-06-30 08:00:00,
2013-06-30 04:05:00,58.0,57.4,29.71,ENE,62,0.0,0.0,98,0.00,,SKC,0.00,VWS V14.01,2013-06-30 08:05:00,
2013-06-30 04:10:00,57.9,57.3,29.71,ENE,62,0.0,0.0,98,0.00,,SKC,0.00,VWS V14.01,2013-06-30 08:10:00,
2013-06-30 04:15:00,57.8,57.2,29.71,ENE,62,0.0,0.0,98,0.00,,SKC,0.00,VWS V14.01,2013-06-30 08:15:00,
2013-06-30 04:20:00,57.6,57.0,29.71,ENE,63,0.0,0.0,98,0.00,,SKC,0.00,VWS V14.01,2013-06-30 08:20:00,
2013-06-30 04:25:00,57.6,57.0,29.71,ENE,63,0.0,0.0,98,0.00,,SKC,0.00,VWS V14.01,2013-06-30 08:25:00,
2013-06-30 04:30:00,57.5,56.9,29.71,ENE,63,0.0,0.0,98,0.00,,SKC,0.00,VWS V14.01,2013-06-30 08:30:00,
2013-06-30 04:35:00,57.5,56.9,29.71,ENE,62,0.0,1.0,98,0.00,,SKC,0.00,VWS V14.01,2013-06-30 08:35:00,
2013-06-30 04:40:00,57.4,56.8,29.71,ENE,63,0.0,1.0,98,0.00,,SKC,0.00,VWS V14.01,2013-06-30 08:40:00,
2013-06-30 04:45:00,57.3,56.7,29.71,ENE,60,1.0,2.0,98,0.00,,SKC,0.00,VWS V14.01,2013-06-30 08:45:00,
2013-06-30 04:50:00,57.2,56.6,29.71,North,359,0.0,2.0,98,0.00,,SKC,0.00,VWS V14.01,2013-06-30 08:50:00,
2013-06-30 04:55:00,57.1,56.5,29.72,North,1,0.0,2.0,98,0.00,,SKC,0.00,VWS V14.01,2013-06-30 08:55:00,
2013-06-30 05:00:00,57.2,56.6,29.72,North,1,0.0,1.0,98,0.00,,SKC,0.00,VWS V14.01,2013-06-30 09:00:00,
2013-06-30 05:05:00,57.3,56.7,29.72,North,1,0.0,1.0,98,0.00,,SKC,0.00,VWS V14.01,2013-06-30 09:05:00,
2013-06-30 05:10:00,57.1,56.5,29.72,North,1,0.0,1.0,98,0.00,,SKC,0.00,VWS V14.01,2013-06-30 09:10:00,
2013-06-30 05:15:00,57.0,56.4,29.72,North,1,0.0,1.0,98,0.00,,SKC,0.00,VWS V14.01,2013-06-30 09:15:00,
2013-06-30 05:20:00,56.9,56.3,29.72,North,1,0.0,1.0,98,0.00,,SKC,0.00,VWS V14.01,2013-06-30 09:20:00,
2013-06-30 05:25:00,56.8,56.2,29.72,North,1,0.0,1.0,98,0.00,,SKC,0.00,VWS V14.01,2013-06-30 09:25:00,
2013-06-30 05:30:00,56.7,56.1,29.73,North,1,0.0,0.0,98,0.00,,SKC,0.00,VWS V14.01,2013-06-30 09:30:00,
2013-06-30 05:35:00,56.8,56.2,29.72,North,1,0.0,1.0,98,0.00,,SKC,0.00,VWS V14.01,2013-06-30 09:35:00,
2013-06-30 05:40:00,56.7,56.1,29.73,North,1,0.0,1.0,98,0.00,,SKC,0.00,VWS V14.01,2013-06-30 09:40:00,
2013-06-30 05:45:00,56.7,56.1,29.73,South,180,0.0,2.0,98,0.00,,SKC,0.00,VWS V14.01,2013-06-30 09:45:00,
2013-06-30 05:50:00,56.7,56.1,29.74,South,180,0.0,2.0,98,0.00,,SKC,0.00,VWS V14.01,2013-06-30 09:50:00,
2013-06-30 05:55:00,56.7,56.1,29.74,South,179,0.0,2.0,98,0.00,,SKC,0.00,VWS V14.01,2013-06-30 09:55:00,
2013-06-30 06:00:00,56.5,55.9,29.74,South,180,0.0,0.0,98,0.00,,SKC,0.00,VWS V14.01,2013-06-30 10:00:00,
2013-06-30 06:05:00,56.4,55.8,29.74,South,180,0.0,0.0,98,0.00,,SKC,0.00,VWS V14.01,2013-06-30 10:05:00,
2013-06-30 06:10:00,56.4,55.8,29.74,South,181,0.0,0.0,98,0.00,,SKC,0.00,VWS V14.01,2013-06-30 10:10:00,
2013-06-30 06:15:00,56.3,56.0,29.74,South,180,0.0,0.0,99,0.00,,SKC,0.00,VWS V14.01,2013-06-30 10:15:00,
2013-06-30 06:20:00,56.1,55.5,29.74,South,180,0.0,0.0,98,0.00,,SKC,0.00,VWS V14.01,2013-06-30 10:20:00,
2013-06-30 06:25:00,56.1,55.5,29.74,South,179,0.0,0.0,98,0.00,,SKC,0.00,VWS V14.01,2013-06-30 10:25:00,
2013-06-30 06:30:00,56.0,55.5,29.74,South,180,0.0,0.0,98,0.00,,SKC,0.00,VWS V14.01,2013-06-30 10:30:00,
2013-06-30 06:35:00,56.0,55.5,29.74,South,180,0.0,0.0,98,0.00,,SKC,0.00,VWS V14.01,2013-06-30 10:35:00,
2013-06-30 06:40:00,56.0,55.5,29.75,South,180,0.0,0.0,98,0.00,,SKC,0.00,VWS V14.01,2013-06-30 10:40:00,
2013-06-30 06:45:00,56.0,55.7,29.75,South,180,0.0,0.0,99,0.00,,SKC,0.00,VWS V14.01,2013-06-30 10:45:00,
2013-06-30 06:50:00,56.1,55.8,29.75,South,180,0.0,0.0,99,0.00,,SKC,0.00,VWS V14.01,2013-06-30 10:50:00,
2013-06-30 06:55:00,56.3,56.0,29.75,South,180,0.0,0.0,99,0.00,,SKC,0.00,VWS V14.01,2013-06-30 10:55:00,
2013-06-30 07:00:00,56.3,56.0,29.75,South,180,0.0,0.0,99,0.00,,SKC,0.00,VWS V14.01,2013-06-30 11:00:00,
2013-06-30 07:05:00,56.5,56.2,29.75,South,180,0.0,0.0,99,0.00,,SKC,0.00,VWS V14.01,2013-06-30 11:05:00,
2013-06-30 07:10:00,56.7,56.4,29.75,South,180,0.0,0.0,99,0.00,,SKC,0.00,VWS V14.01,2013-06-30 11:10:00,
2013-06-30 07:15:00,56.7,56.4,29.75,South,180,0.0,0.0,99,0.00,,SKC,0.00,VWS V14.01,2013-06-30 11:15:00,
2013-06-30 07:20:00,56.7,56.4,29.75,South,181,0.0,0.0,99,0.00,,SKC,0.00,VWS V14.01,2013-06-30 11:20:00,
2013-06-30 07:25:00,56.9,56.6,29.76,South,179,0.0,1.0,99,0.00,,SKC,0.00,VWS V14.01,2013-06-30 11:25:00,
2013-06-30 07:30:00,57.2,56.9,29.76,South,180,0.0,0.0,99,0.00,,SKC,0.00,VWS V14.01,2013-06-30 11:30:00,
2013-06-30 07:35:00,57.4,57.1,29.76,South,181,0.0,0.0,99,0.00,,SKC,0.00,VWS V14.01,2013-06-30 11:35:00,
2013-06-30 07:40:00,57.4,57.1,29.77,SSW,195,0.0,1.0,99,0.00,,SKC,0.00,VWS V14.01,2013-06-30 11:40:00,
2013-06-30 07:45:00,57.5,57.2,29.77,West,273,0.0,2.0,99,0.00,,SKC,0.00,VWS V14.01,2013-06-30 11:45:00,
2013-06-30 07:50:00,57.7,57.4,29.77,West,276,1.0,2.0,99,0.00,,SKC,0.00,VWS V14.01,2013-06-30 11:50:00,
2013-06-30 07:55:00,57.8,57.5,29.77,NE,38,0.0,2.0,99,0.00,,SKC,0.00,VWS V14.01,2013-06-30 11:55:00,
2013-06-30 08:00:00,58.1,57.8,29.77,NE,38,0.0,0.0,99,0.00,,SKC,0.00,VWS V14.01,2013-06-30 12:00:00,
2013-06-30 08:05:00,58.5,58.2,29.77,NE,38,0.0,1.0,99,0.00,,SKC,0.00,VWS V14.01,2013-06-30 12:05:00,
2013-06-30 08:10:00,59.1,58.8,29.77,NE,38,0.0,1.0,99,0.00,,SKC,0.00,VWS V14.01,2013-06-30 12:10:00,
2013-06-30 08:15:00,59.6,59.3,29.77,NE,38,1.0,1.0,99,0.00,,SKC,0.00,VWS V14.01,2013-06-30 12:15:00,
2013-06-30 08:20:00,60.0,59.7,29.77,NE,39,0.0,1.0,99,0.00,,SKC,0.00,VWS V14.01,2013-06-30 12:20:00,
2013-06-30 08:25:00,60.7,60.4,29.78,NW,326,1.0,1.0,99,0.00,,SKC,0.00,VWS V14.01,2013-06-30 12:25:00,
2013-06-30 08:30:00,61.0,60.4,29.78,NW,326,0.0,1.0,98,0.00,,SKC,0.00,VWS V14.01,2013-06-30 12:30:00,
2013-06-30 08:35:00,61.6,61.0,29.77,NW,326,0.0,1.0,98,0.00,,SKC,0.00,VWS V14.01,2013-06-30 12:35:00,
2013-06-30 08:40:00,62.9,62.3,29.78,NW,326,0.0,1.0,98,0.00,,SKC,0.00,VWS V14.01,2013-06-30 12:40:00,
2013-06-30 08:45:00,64.1,62.6,29.77,NW,326,0.0,1.0,95,0.00,,SKC,0.00,VWS V14.01,2013-06-30 12:45:00,
2013-06-30 08:50:00,64.4,62.0,29.77,NNE,17,1.0,2.0,92,0.00,,SKC,0.00,VWS V14.01,2013-06-30 12:50:00,
2013-06-30 08:55:00,64.9,62.5,29.77,NNE,18,1.0,2.0,92,0.00,,SKC,0.00,VWS V14.01,2013-06-30 12:55:00,
2013-06-30 09:00:00,65.6,62.3,29.77,ESE,116,0.0,0.0,89,0.00,,SKC,0.00,VWS V14.01,2013-06-30 13:00:00,
2013-06-30 09:05:00,66.4,62.7,29.77,NNW,340,1.0,1.0,88,0.00,,SKC,0.00,VWS V14.01,2013-06-30 13:05:00,
2013-06-30 09:10:00,66.8,62.5,29.77,NNW,346,0.0,1.0,86,0.00,,SKC,0.00,VWS V14.01,2013-06-30 13:10:00,
2013-06-30 09:15:00,67.1,62.1,29.77,SW,236,0.0,1.0,84,0.00,,SKC,0.00,VWS V14.01,2013-06-30 13:15:00,
2013-06-30 09:20:00,67.5,62.5,29.78,SW,236,0.0,1.0,84,0.00,,SKC,0.00,VWS V14.01,2013-06-30 13:20:00,
2013-06-30 09:25:00,68.0,62.7,29.78,North,358,2.0,3.0,83,0.00,,SKC,0.00,VWS V14.01,2013-06-30 13:25:00,
2013-06-30 09:30:00,68.0,63.0,29.78,WNW,288,0.0,0.0,84,0.00,,SKC,0.00,VWS V14.01,2013-06-30 13:30:00,
2013-06-30 09:35:00,68.5,63.1,29.78,NE,46,2.0,3.0,83,0.00,,SKC,0.00,VWS V14.01,2013-06-30 13:35:00,
2013-06-30 09:40:00,68.5,63.1,29.78,NE,53,1.0,3.0,83,0.00,,SKC,0.00,VWS V14.01,2013-06-30 13:40:00,
2013-06-30 09:45:00,68.6,62.9,29.78,NNW,346,2.0,3.0,82,0.00,,SKC,0.00,VWS V14.01,2013-06-30 13:45:00,
2013-06-30 09:50:00,68.9,62.8,29.78,NNW,338,2.0,3.0,81,0.00,,SKC,0.00,VWS V14.01,2013-06-30 13:50:00,
2013-06-30 09:55:00,69.3,63.6,29.78,North,1,1.0,3.0,82,0.00,,SKC,0.00,VWS V14.01,2013-06-30 13:55:00,
2013-06-30 10:00:00,69.7,63.3,29.78,NNW,329,1.0,1.0,80,0.00,,SKC,0.00,VWS V14.01,2013-06-30 14:00:00,
2013-06-30 10:05:00,70.0,63.9,29.77,NNW,331,1.0,2.0,81,0.00,,SKC,0.00,VWS V14.01,2013-06-30 14:05:00,
2013-06-30 10:10:00,70.7,64.2,29.77,NE,50,0.0,3.0,80,0.00,,SKC,0.00,VWS V14.01,2013-06-30 14:10:00,
2013-06-30 10:15:00,71.6,64.4,29.77,ESE,108,0.0,3.0,78,0.00,,SKC,0.00,VWS V14.01,2013-06-30 14:15:00,
2013-06-30 10:20:00,72.8,64.4,29.77,ESE,108,0.0,3.0,75,0.00,,SKC,0.00,VWS V14.01,2013-06-30 14:20:00,
2013-06-30 10:25:00,72.9,64.9,29.77,WSW,252,1.0,3.0,76,0.00,,SKC,0.00,VWS V14.01,2013-06-30 14:25:00,
2013-06-30 10:30:00,73.1,65.1,29.77,NW,308,1.0,2.0,76,0.00,,SKC,0.00,VWS V14.01,2013-06-30 14:30:00,
2013-06-30 10:35:00,73.3,63.7,29.77,WSW,257,0.0,3.0,72,0.00,,SKC,0.00,VWS V14.01,2013-06-30 14:35:00,
2013-06-30 10:40:00,73.7,64.9,29.76,West,273,1.0,3.0,74,0.00,,SKC,0.00,VWS V14.01,2013-06-30 14:40:00,
2013-06-30 10:45:00,74.3,63.5,29.76,SSW,204,1.0,3.0,69,0.00,,SKC,0.00,VWS V14.01,2013-06-30 14:45:00,
2013-06-30 10:50:00,75.0,65.0,29.76,SW,236,0.0,3.0,71,0.00,,SKC,0.00,VWS V14.01,2013-06-30 14:50:00,
2013-06-30 10:55:00,75.7,65.6,29.76,SW,221,1.0,4.0,71,0.00,,SKC,0.00,VWS V14.01,2013-06-30 14:55:00,
2013-06-30 11:00:00,76.3,65.0,29.76,NE,55,0.0,1.0,68,0.00,,SKC,0.00,VWS V14.01,2013-06-30 15:00:00,
2013-06-30 11:05:00,76.9,66.0,29.76,WSW,256,1.0,2.0,69,0.00,,SKC,0.00,VWS V14.01,2013-06-30 15:05:00,
2013-06-30 11:10:00,77.2,63.2,29.76,SSW,200,1.0,3.0,62,0.00,,SKC,0.00,VWS V14.01,2013-06-30 15:10:00,
2013-06-30 11:15:00,77.5,63.5,29.76,West,281,2.0,4.0,62,0.00,,SKC,0.00,VWS V14.01,2013-06-30 15:15:00,
2013-06-30 11:30:00,73.0,64.6,29.77,WNW,287,1.0,3.0,75,0.00,,SKC,0.00,VWS V14.01,2013-06-30 15:30:00,
2013-06-30 11:42:00,78.3,61.8,29.76,WNW,284,1.0,1.0,57,0.00,,SKC,0.00,VWS V14.01,2013-06-30 15:42:00,
2013-06-30 11:47:00,78.7,61.7,29.76,NNW,348,0.0,3.0,56,0.00,,SKC,0.00,VWS V14.01,2013-06-30 15:47:00,
2013-06-30 11:52:00,79.2,62.2,29.76,North,353,2.0,3.0,56,0.00,,SKC,0.00,VWS V14.01,2013-06-30 15:52:00,
2013-06-30 11:57:00,79.4,61.8,29.76,SSW,210,0.0,3.0,55,0.00,,SKC,0.00,VWS V14.01,2013-06-30 15:57:00,
2013-06-30 12:00:00,79.8,61.2,29.76,SSE,166,1.0,3.0,53,0.00,,SKC,0.00,VWS V14.01,2013-06-30 16:00:00,
2013-06-30 12:02:00,80.3,64.2,29.76,SSE,162,0.0,2.0,58,0.00,,SKC,0.00,VWS V14.01,2013-06-30 16:02:00,
2013-06-30 12:07:00,80.7,62.5,29.76,ENE,65,0.0,2.0,54,0.00,,SKC,0.00,VWS V14.01,2013-06-30 16:07:00,
2013-06-30 12:12:00,80.3,60.0,29.76,SW,221,0.0,4.0,50,0.00,,SKC,0.00,VWS V14.01,2013-06-30 16:12:00,
2013-06-30 12:17:00,80.4,60.1,29.76,ENE,65,3.0,4.0,50,0.00,,SKC,0.00,VWS V14.01,2013-06-30 16:17:00,
2013-06-30 12:22:00,80.2,58.8,29.76,NW,310,1.0,5.0,48,0.00,,SKC,0.00,VWS V14.01,2013-06-30 16:22:00,
2013-06-30 12:27:00,80.3,60.0,29.76,WSW,256,0.0,5.0,50,0.00,,SKC,0.00,VWS V14.01,2013-06-30 16:27:00,
2013-06-30 12:30:00,80.6,61.4,29.76,West,264,1.0,5.0,52,0.00,,SKC,0.00,VWS V14.01,2013-06-30 16:30:00,
2013-06-30 12:32:00,80.8,62.1,29.76,WSW,238,1.0,4.0,53,0.00,,SKC,0.00,VWS V14.01,2013-06-30 16:32:00,
2013-06-30 12:37:00,81.4,60.4,29.76,SSW,192,0.0,5.0,49,0.00,,SKC,0.00,VWS V14.01,2013-06-30 16:37:00,
2013-06-30 12:42:00,81.2,59.1,29.76,SW,229,2.0,5.0,47,0.00,,SKC,0.00,VWS V14.01,2013-06-30 16:42:00,
2013-06-30 12:47:00,81.0,59.5,29.76,NNW,345,2.0,5.0,48,0.00,,SKC,0.00,VWS V14.01,2013-06-30 16:47:00,
2013-06-30 12:52:00,81.3,59.8,29.76,SSE,159,2.0,5.0,48,0.00,,SKC,0.00,VWS V14.01,2013-06-30 16:52:00,
2013-06-30 12:57:00,81.4,60.4,29.75,ENE,60,1.0,5.0,49,0.00,,SKC,0.00,VWS V14.01,2013-06-30 16:57:00,
2013-06-30 13:00:00,81.0,61.2,29.75,North,8,0.0,5.0,51,0.00,,SKC,0.00,VWS V14.01,2013-06-30 17:00:00,
2013-06-30 13:02:00,80.9,62.2,29.75,SSW,205,1.0,2.0,53,0.00,,SKC,0.00,VWS V14.01,2013-06-30 17:02:00,
2013-06-30 13:07:00,81.4,60.4,29.75,WNW,293,1.0,2.0,49,0.00,,SKC,0.00,VWS V14.01,2013-06-30 17:07:00,
2013-06-30 13:12:00,82.0,61.0,29.75,ENE,70,4.0,6.0,49,0.00,,SKC,0.00,VWS V14.01,2013-06-30 17:12:00,
2013-06-30 13:17:00,81.9,60.9,29.74,NNE,16,1.0,6.0,49,0.00,,SKC,0.00,VWS V14.01,2013-06-30 17:17:00,
2013-06-30 13:22:00,82.0,61.5,29.74,North,353,2.0,6.0,50,0.00,,SKC,0.00,VWS V14.01,2013-06-30 17:22:00,
2013-06-30 13:27:00,82.1,61.6,29.74,SW,217,1.0,6.0,50,0.00,,SKC,0.00,VWS V14.01,2013-06-30 17:27:00,
2013-06-30 13:30:00,82.2,60.6,29.74,South,169,2.0,7.0,48,0.00,,SKC,0.00,VWS V14.01,2013-06-30 17:30:00,
2013-06-30 13:32:00,82.7,60.4,29.74,SSE,162,0.0,4.0,47,0.00,,SKC,0.00,VWS V14.01,2013-06-30 17:32:00,
2013-06-30 13:37:00,83.6,61.3,29.74,ENE,77,0.0,5.0,47,0.00,,SKC,0.00,VWS V14.01,2013-06-30 17:37:00,
2013-06-30 13:42:00,84.2,61.8,29.73,SSW,207,1.0,5.0,47,0.00,,SKC,0.00,VWS V14.01,2013-06-30 17:42:00,
2013-06-30 13:47:00,84.9,62.4,29.73,South,174,3.0,6.0,47,0.00,,SKC,0.00,VWS V14.01,2013-06-30 17:47:00,
2013-06-30 13:52:00,84.5,61.5,29.73,SSE,151,1.0,6.0,46,0.00,,SKC,0.00,VWS V14.01,2013-06-30 17:52:00,
2013-06-30 13:57:00,84.8,61.1,29.73,SSE,165,3.0,7.0,45,0.00,,SKC,0.00,VWS V14.01,2013-06-30 17:57:00,
2013-06-30 14:00:00,84.5,60.2,29.73,SSW,207,2.0,7.0,44,0.00,,SKC,0.00,VWS V14.01,2013-06-30 18:00:00,
2013-06-30 14:02:00,84.1,59.9,29.73,South,181,2.0,7.0,44,0.00,,SKC,0.00,VWS V14.01,2013-06-30 18:02:00,
2013-06-30 14:07:00,83.9,62.1,29.73,NE,55,2.0,7.0,48,0.00,,SKC,0.00,VWS V14.01,2013-06-30 18:07:00,
2013-06-30 14:12:00,84.0,59.1,29.72,SE,127,2.0,7.0,43,0.00,,SKC,0.00,VWS V14.01,2013-06-30 18:12:00,
2013-06-30 14:17:00,83.8,60.2,29.72,NE,56,1.0,7.0,45,0.00,,SKC,0.00,VWS V14.01,2013-06-30 18:17:00,
2013-06-30 14:22:00,83.3,60.4,29.72,SSE,165,3.0,7.0,46,0.00,,SKC,0.00,VWS V14.01,2013-06-30 18:22:00,
2013-06-30 14:27:00,83.2,61.5,29.73,NE,39,4.0,7.0,48,0.00,,SKC,0.00,VWS V14.01,2013-06-30 18:27:00,
2013-06-30 14:30:00,83.3,59.8,29.72,NW,324,1.0,7.0,45,0.00,,SKC,0.00,VWS V14.01,2013-06-30 18:30:00,
2013-06-30 14:32:00,83.2,60.3,29.72,South,172,2.0,2.0,46,0.00,,SKC,0.00,VWS V14.01,2013-06-30 18:32:00,
2013-06-30 14:37:00,83.6,60.7,29.72,South,169,1.0,3.0,46,0.00,,SKC,0.00,VWS V14.01,2013-06-30 18:37:00,
2013-06-30 14:42:00,84.5,62.1,29.72,North,360,0.0,3.0,47,0.00,,SKC,0.00,VWS V14.01,2013-06-30 18:42:00,
2013-06-30 14:47:00,85.2,62.1,29.72,South,191,1.0,3.0,46,0.00,,SKC,0.00,VWS V14.01,2013-06-30 18:47:00,
2013-06-30 14:52:00,84.6,60.9,29.72,SSW,195,3.0,5.0,45,0.00,,SKC,0.00,VWS V14.01,2013-06-30 18:52:00,
2013-06-30 14:57:00,84.9,60.6,29.71,WNW,285,2.0,5.0,44,0.00,,SKC,0.00,VWS V14.01,2013-06-30 18:57:00,
2013-06-30 15:00:00,84.6,59.7,29.71,WNW,284,2.0,5.0,43,0.00,,SKC,0.00,VWS V14.01,2013-06-30 19:00:00,
2013-06-30 15:02:00,84.3,60.7,29.71,WSW,250,1.0,2.0,45,0.00,,SKC,0.00,VWS V14.01,2013-06-30 19:02:00,
2013-06-30 15:07:00,84.8,61.1,29.71,ENE,60,1.0,3.0,45,0.00,,SKC,0.00,VWS V14.01,2013-06-30 19:07:00,
2013-06-30 15:12:00,85.7,60.7,29.71,SSW,212,1.0,4.0,43,0.00,,SKC,0.00,VWS V14.01,2013-06-30 19:12:00,
2013-06-30 15:17:00,85.3,61.6,29.71,SW,221,7.0,8.0,45,0.00,,SKC,0.00,VWS V14.01,2013-06-30 19:17:00,
2013-06-30 15:22:00,85.3,62.8,29.71,South,176,1.0,8.0,47,0.00,,SKC,0.00,VWS V14.01,2013-06-30 19:22:00,
2013-06-30 15:27:00,84.4,58.8,29.70,NW,308,1.0,8.0,42,0.00,,SKC,0.00,VWS V14.01,2013-06-30 19:27:00,
2013-06-30 15:30:00,84.3,61.3,29.71,WSW,246,2.0,8.0,46,0.00,,SKC,0.00,VWS V14.01,2013-06-30 19:30:00,
2013-06-30 15:32:00,84.6,62.2,29.70,West,281,0.0,2.0,47,0.00,,SKC,0.00,VWS V14.01,2013-06-30 19:32:00,
2013-06-30 15:37:00,85.8,62.0,29.70,SW,225,3.0,3.0,45,0.00,,SKC,0.00,VWS V14.01,2013-06-30 19:37:00,
2013-06-30 15:42:00,85.7,62.6,29.70,SW,221,1.0,5.0,46,0.00,,SKC,0.00,VWS V14.01,2013-06-30 19:42:00,
2013-06-30 15:47:00,86.1,64.1,29.71,NE,50,2.0,5.0,48,0.00,,SKC,0.00,VWS V14.01,2013-06-30 19:47:00,
2013-06-30 15:52:00,86.6,61.5,29.71,NE,41,2.0,5.0,43,0.00,,SKC,0.00,VWS V14.01,2013-06-30 19:52:00,
2013-06-30 15:57:00,86.4,62.6,29.71,WSW,238,0.0,7.0,45,0.00,,SKC,0.00,VWS V14.01,2013-06-30 19:57:00,
2013-06-30 16:00:00,86.4,65.0,29.71,SE,139,0.0,7.0,49,0.00,,SKC,0.00,VWS V14.01,2013-06-30 20:00:00,
2013-06-30 16:02:00,86.4,63.8,29.71,SSW,211,2.0,4.0,47,0.00,,SKC,0.00,VWS V14.01,2013-06-30 20:02:00,
2013-06-30 16:07:00,85.8,61.4,29.71,NNE,20,2.0,4.0,44,0.00,,SKC,0.00,VWS V14.01,2013-06-30 20:07:00,
2013-06-30 16:12:00,85.9,62.1,29.71,SSW,213,2.0,6.0,45,0.00,,SKC,0.00,VWS V14.01,2013-06-30 20:12:00,
2013-06-30 16:17:00,85.9,63.3,29.71,SSW,195,0.0,6.0,47,0.00,,SKC,0.00,VWS V14.01,2013-06-30 20:17:00,
2013-06-30 16:22:00,85.7,63.8,29.71,SW,222,3.0,6.0,48,0.00,,SKC,0.00,VWS V14.01,2013-06-30 20:22:00,
2013-06-30 16:27:00,85.4,63.5,29.71,SW,221,2.0,6.0,48,0.00,,SKC,0.00,VWS V14.01,2013-06-30 20:27:00,
2013-06-30 16:30:00,85.3,62.8,29.71,South,169,1.0,6.0,47,0.00,,SKC,0.00,VWS V14.01,2013-06-30 20:30:00,
2013-06-30 16:32:00,85.2,63.9,29.71,SSW,210,0.0,2.0,49,0.00,,SKC,0.00,VWS V14.01,2013-06-30 20:32:00,
2013-06-30 16:37:00,84.7,64.6,29.70,WSW,245,0.0,3.0,51,0.00,,SKC,0.00,VWS V14.01,2013-06-30 20:37:00,
2013-06-30 16:42:00,84.3,64.8,29.70,WSW,246,1.0,4.0,52,0.00,,SKC,0.00,VWS V14.01,2013-06-30 20:42:00,
2013-06-30 16:47:00,83.6,64.1,29.71,SW,224,2.0,4.0,52,0.00,,SKC,0.00,VWS V14.01,2013-06-30 20:47:00,
2013-06-30 16:52:00,83.3,66.5,29.71,South,176,0.0,4.0,57,0.00,,SKC,0.00,VWS V14.01,2013-06-30 20:52:00,
2013-06-30 16:57:00,83.5,66.2,29.71,WSW,253,0.0,4.0,56,0.00,,SKC,0.00,VWS V14.01,2013-06-30 20:57:00,
2013-06-30 17:00:00,83.7,64.8,29.70,SSE,153,0.0,4.0,53,0.00,,SKC,0.00,VWS V14.01,2013-06-30 21:00:00,
2013-06-30 17:02:00,84.1,67.7,29.70,East,98,1.0,1.0,58,0.00,,SKC,0.00,VWS V14.01,2013-06-30 21:02:00,
2013-06-30 17:07:00,84.6,65.1,29.70,SSW,194,1.0,3.0,52,0.00,,SKC,0.00,VWS V14.01,2013-06-30 21:07:00,
2013-06-30 17:12:00,84.4,64.9,29.70,SSW,210,1.0,5.0,52,0.00,,SKC,0.00,VWS V14.01,2013-06-30 21:12:00,
2013-06-30 17:17:00,84.3,66.4,29.70,SSW,197,2.0,5.0,55,0.00,,SKC,0.00,VWS V14.01,2013-06-30 21:17:00,
2013-06-30 17:22:00,84.1,65.1,29.70,South,187,2.0,7.0,53,0.00,,SKC,0.00,VWS V14.01,2013-06-30 21:22:00,
2013-06-30 17:27:00,83.1,65.8,29.71,SSW,208,1.0,7.0,56,0.00,,SKC,0.00,VWS V14.01,2013-06-30 21:27:00,
2013-06-30 17:30:00,82.6,65.8,29.71,SSW,204,2.0,7.0,57,0.00,,SKC,0.00,VWS V14.01,2013-06-30 21:30:00,
2013-06-30 17:32:00,82.2,66.5,29.71,South,173,6.0,6.0,59,0.00,,SKC,0.00,VWS V14.01,2013-06-30 21:32:00,
2013-06-30 17:37:00,81.6,67.3,29.71,WSW,253,0.0,6.0,62,0.00,,SKC,0.00,VWS V14.01,2013-06-30 21:37:00,
2013-06-30 17:42:00,81.2,66.5,29.71,WSW,258,1.0,6.0,61,0.00,,SKC,0.00,VWS V14.01,2013-06-30 21:42:00,
2013-06-30 17:47:00,80.4,66.2,29.71,WSW,248,0.0,6.0,62,0.00,,SKC,0.00,VWS V14.01,2013-06-30 21:47:00,
2013-06-30 17:52:00,79.6,65.9,29.71,WSW,248,0.0,6.0,63,0.00,,SKC,0.00,VWS V14.01,2013-06-30 21:52:00,
2013-06-30 17:57:00,78.8,65.2,29.72,SW,220,0.0,6.0,63,0.00,,SKC,0.00,VWS V14.01,2013-06-30 21:57:00,
2013-06-30 18:00:00,78.6,65.9,29.72,SW,219,0.0,6.0,65,0.00,,SKC,0.00,VWS V14.01,2013-06-30 22:00:00,
2013-06-30 18:02:00,78.4,64.8,29.71,South,173,1.0,3.0,63,0.00,,SKC,0.00,VWS V14.01,2013-06-30 22:02:00,
2013-06-30 18:07:00,77.9,64.3,29.72,ESE,120,0.0,3.0,63,0.00,,SKC,0.00,VWS V14.01,2013-06-30 22:07:00,
2013-06-30 18:12:00,77.3,63.7,29.71,SE,145,0.0,3.0,63,0.00,,SKC,0.00,VWS V14.01,2013-06-30 22:12:00,
2013-06-30 18:17:00,76.9,62.9,29.71,North,8,2.0,4.0,62,0.00,,SKC,0.00,VWS V14.01,2013-06-30 22:17:00,
2013-06-30 18:22:00,76.6,62.2,29.71,SSE,166,4.0,5.0,61,0.00,,SKC,0.00,VWS V14.01,2013-06-30 22:22:00,
2013-06-30 18:27:00,76.5,62.5,29.72,WSW,244,0.0,5.0,62,0.00,,SKC,0.00,VWS V14.01,2013-06-30 22:27:00,
2013-06-30 18:30:00,76.4,62.9,29.72,SSE,156,0.0,5.0,63,0.00,,SKC,0.00,VWS V14.01,2013-06-30 22:30:00,
2013-06-30 18:32:00,76.3,63.2,29.72,SSW,208,2.0,5.0,64,0.00,,SKC,0.00,VWS V14.01,2013-06-30 22:32:00,
2013-06-30 18:37:00,75.9,64.6,29.72,SSW,198,2.0,5.0,68,0.00,,SKC,0.00,VWS V14.01,2013-06-30 22:37:00,
2013-06-30 18:42:00,75.5,65.0,29.72,SSW,203,2.0,7.0,70,0.00,,SKC,0.00,VWS V14.01,2013-06-30 22:42:00,
2013-06-30 18:47:00,75.1,65.5,29.73,ESE,123,3.0,7.0,72,0.00,,SKC,0.00,VWS V14.01,2013-06-30 22:47:00,
2013-06-30 18:52:00,74.1,64.5,29.74,SSE,163,4.0,7.0,72,0.00,,SKC,0.00,VWS V14.01,2013-06-30 22:52:00,
2013-06-30 18:57:00,73.2,64.4,29.74,SSW,207,2.0,7.0,74,0.00,,SKC,0.00,VWS V14.01,2013-06-30 22:57:00,
2013-06-30 19:00:00,72.8,64.4,29.75,West,270,1.0,7.0,75,0.00,,SKC,0.00,VWS V14.01,2013-06-30 23:00:00,
2013-06-30 19:02:00,72.2,63.8,29.74,SW,229,2.0,7.0,75,0.00,,SKC,0.00,VWS V14.01,2013-06-30 23:02:00,
2013-06-30 19:07:00,71.4,63.5,29.74,WNW,287,0.0,7.0,76,0.00,,SKC,0.00,VWS V14.01,2013-06-30 23:07:00,
2013-06-30 19:12:00,70.8,63.2,29.74,West,259,2.0,7.0,77,0.00,,SKC,0.00,VWS V14.01,2013-06-30 23:12:00,
2013-06-30 19:17:00,69.8,63.4,29.75,ESE,102,1.0,7.0,80,0.00,,SKC,0.00,VWS V14.01,2013-06-30 23:17:00,
2013-06-30 19:22:00,68.7,63.3,29.75,West,264,0.0,7.0,83,0.00,,SKC,0.00,VWS V14.01,2013-06-30 23:22:00,
2013-06-30 19:27:00,68.0,63.3,29.74,SW,219,1.0,7.0,85,0.00,,SKC,0.00,VWS V14.01,2013-06-30 23:27:00,
2013-06-30 19:30:00,67.8,63.5,29.74,SSW,205,2.0,7.0,86,0.00,,SKC,0.00,VWS V14.01,2013-06-30 23:30:00,
2013-06-30 19:32:00,67.6,63.3,29.75,West,280,2.0,2.0,86,0.00,,SKC,0.00,VWS V14.01,2013-06-30 23:32:00,
2013-06-30 19:37:00,67.5,63.2,29.75,SW,221,1.0,5.0,86,0.00,,SKC,0.00,VWS V14.01,2013-06-30 23:37:00,
2013-06-30 19:42:00,67.5,63.2,29.75,WSW,243,0.0,6.0,86,0.00,,SKC,0.00,VWS V14.01,2013-06-30 23:42:00,
2013-06-30 19:47:00,67.6,63.3,29.76,WSW,252,0.0,6.0,86,0.00,,SKC,0.00,VWS V14.01,2013-06-30 23:47:00,
2013-06-30 19:52:00,67.7,63.0,29.76,NW,305,0.0,6.0,85,0.00,,SKC,0.00,VWS V14.01,2013-06-30 23:52:00,
2013-06-30 19:57:00,67.7,63.7,29.76,SSW,200,1.0,6.0,87,0.00,,SKC,0.00,VWS V14.01,2013-06-30 23:57:00,
2013-06-30 20:00:00,67.6,63.9,29.76,SSW,193,2.0,6.0,88,0.03,,SKC,0.03,VWS V14.01,2013-07-01 00:00:00,
2013-06-30 20:02:00,67.4,63.7,29.77,SSW,210,0.0,2.0,88,0.08,,SKC,0.08,VWS V14.01,2013-07-01 00:02:00,
2013-06-30 20:07:00,66.8,63.8,29.77,SW,223,1.0,2.0,90,0.13,,SKC,0.13,VWS V14.01,2013-07-01 00:07:00,
2013-06-30 20:12:00,66.4,63.7,29.76,NE,53,1.0,3.0,91,0.23,,SKC,0.23,VWS V14.01,2013-07-01 00:12:00,
2013-06-30 20:17:00,66.0,63.9,29.76,WNW,294,0.0,3.0,93,0.39,,SKC,0.39,VWS V14.01,2013-07-01 00:17:00,
2013-06-30 20:22:00,65.9,63.5,29.76,ENE,58,2.0,4.0,92,0.44,,SKC,0.44,VWS V14.01,2013-07-01 00:22:00,
2013-06-30 20:27:00,66.0,63.9,29.76,ENE,60,0.0,4.0,93,0.46,,SKC,0.46,VWS V14.01,2013-07-01 00:27:00,
2013-06-30 20:30:00,66.0,64.2,29.76,SW,222,0.0,4.0,94,0.46,,SKC,0.46,VWS V14.01,2013-07-01 00:30:00,
2013-06-30 20:32:00,65.9,64.1,29.77,SW,215,0.0,2.0,94,0.46,,SKC,0.46,VWS V14.01,2013-07-01 00:32:00,
2013-06-30 20:37:00,65.8,64.0,29.77,SW,215,0.0,2.0,94,0.46,,SKC,0.46,VWS V14.01,2013-07-01 00:37:00,
2013-06-30 20:42:00,65.9,64.4,29.77,SW,228,1.0,2.0,95,0.46,,SKC,0.46,VWS V14.01,2013-07-01 00:42:00,
2013-06-30 20:47:00,65.9,64.4,29.77,SW,229,0.0,2.0,95,0.46,,SKC,0.46,VWS V14.01,2013-07-01 00:47:00,
2013-06-30 20:52:00,65.8,64.0,29.77,NNE,25,0.0,2.0,94,0.46,,SKC,0.46,VWS V14.01,2013-07-01 00:52:00,
2013-06-30 20:57:00,65.5,63.7,29.78,NNE,26,0.0,2.0,94,0.46,,SKC,0.46,VWS V14.01,2013-07-01 00:57:00,
2013-06-30 21:00:00,65.5,64.0,29.77,NNE,25,0.0,2.0,95,0.46,,SKC,0.46,VWS V14.01,2013-07-01 01:00:00,
2013-06-30 21:02:00,65.6,63.8,29.78,NNE,25,0.0,0.0,94,0.43,,SKC,0.46,VWS V14.01,2013-07-01 01:02:00,
2013-06-30 21:07:00,65.7,64.2,29.78,NNE,26,0.0,0.0,95,0.43,,SKC,0.46,VWS V14.01,2013-07-01 01:07:00,
2013-06-30 21:12:00,65.7,64.2,29.78,NNE,25,0.0,0.0,95,0.43,,SKC,0.46,VWS V14.01,2013-07-01 01:12:00,
2013-06-30 21:17:00,65.8,64.6,29.78,NNE,26,1.0,1.0,96,0.43,,SKC,0.46,VWS V14.01,2013-07-01 01:17:00,
2013-06-30 21:22:00,65.7,64.5,29.78,NNE,23,0.0,1.0,96,0.43,,SKC,0.46,VWS V14.01,2013-07-01 01:22:00,
2013-06-30 21:27:00,65.7,64.5,29.78,NNE,23,0.0,1.0,96,0.43,,SKC,0.46,VWS V14.01,2013-07-01 01:27:00,
2013-06-30 21:30:00,65.7,64.5,29.77,NNE,23,0.0,1.0,96,0.43,,SKC,0.46,VWS V14.01,2013-07-01 01:30:00,
2013-06-30 21:32:00,65.7,64.5,29.77,NNE,23,0.0,0.0,96,0.00,,SKC,0.46,VWS V14.01,2013-07-01 01:32:00,
2013-06-30 21:37:00,65.7,64.5,29.78,NNE,23,0.0,0.0,96,0.00,,SKC,0.46,VWS V14.01,2013-07-01 01:37:00,
2013-06-30 21:42:00,65.6,64.4,29.78,NNE,23,0.0,0.0,96,0.00,,SKC,0.46,VWS V14.01,2013-07-01 01:42:00,
2013-06-30 21:47:00,65.6,64.7,29.78,NNE,23,0.0,0.0,97,0.00,,SKC,0.46,VWS V14.01,2013-07-01 01:47:00,
2013-06-30 21:52:00,65.5,64.6,29.78,NNE,23,0.0,0.0,97,0.00,,SKC,0.46,VWS V14.01,2013-07-01 01:52:00,
2013-06-30 21:57:00,65.6,64.7,29.79,NNE,23,0.0,0.0,97,0.00,,SKC,0.46,VWS V14.01,2013-07-01 01:57:00,
2013-06-30 22:00:00,65.6,64.7,29.79,NNE,23,0.0,0.0,97,0.00,,SKC,0.46,VWS V14.01,2013-07-01 02:00:00,
2013-06-30 22:02:00,65.6,64.7,29.79,NNE,23,0.0,0.0,97,0.00,,SKC,0.46,VWS V14.01,2013-07-01 02:02:00,
2013-06-30 22:07:00,65.4,64.5,29.79,NNE,23,0.0,1.0,97,0.00,,SKC,0.46,VWS V14.01,2013-07-01 02:07:00,
2013-06-30 22:12:00,65.3,64.4,29.79,NNE,23,0.0,1.0,97,0.00,,SKC,0.46,VWS V14.01,2013-07-01 02:12:00,
2013-06-30 22:17:00,65.3,64.4,29.79,NNE,23,0.0,1.0,97,0.00,,SKC,0.46,VWS V14.01,2013-07-01 02:17:00,
2013-06-30 22:22:00,65.3,64.7,29.80,NNE,23,0.0,1.0,98,0.00,,SKC,0.46,VWS V14.01,2013-07-01 02:22:00,
2013-06-30 22:27:00,65.2,64.3,29.79,NNE,23,0.0,1.0,97,0.00,,SKC,0.46,VWS V14.01,2013-07-01 02:27:00,
2013-06-30 22:30:00,65.2,64.3,29.79,NNE,23,0.0,1.0,97,0.00,,SKC,0.46,VWS V14.01,2013-07-01 02:30:00,
2013-06-30 22:32:00,65.1,64.2,29.79,NNE,23,0.0,0.0,97,0.00,,SKC,0.46,VWS V14.01,2013-07-01 02:32:00,
2013-06-30 22:37:00,65.0,64.1,29.80,NNE,23,0.0,0.0,97,0.00,,SKC,0.46,VWS V14.01,2013-07-01 02:37:00,
2013-06-30 22:42:00,65.0,64.4,29.80,NNE,23,0.0,0.0,98,0.00,,SKC,0.46,VWS V14.01,2013-07-01 02:42:00,
2013-06-30 22:47:00,65.0,64.4,29.80,NNE,23,0.0,0.0,98,0.00,,SKC,0.46,VWS V14.01,2013-07-01 02:47:00,
2013-06-30 22:52:00,65.0,64.4,29.80,NNE,23,0.0,0.0,98,0.00,,SKC,0.46,VWS V14.01,2013-07-01 02:52:00,
2013-06-30 22:57:00,65.0,64.4,29.80,NNE,23,0.0,0.0,98,0.00,,SKC,0.46,VWS V14.01,2013-07-01 02:57:00,
2013-06-30 23:00:00,65.0,64.4,29.80,NNE,23,0.0,0.0,98,0.00,,SKC,0.46,VWS V14.01,2013-07-01 03:00:00,
2013-06-30 23:02:00,65.0,64.4,29.80,NNE,23,0.0,0.0,98,0.00,,SKC,0.46,VWS V14.01,2013-07-01 03:02:00,
2013-06-30 23:07:00,65.0,64.4,29.80,NNE,23,0.0,0.0,98,0.00,,SKC,0.46,VWS V14.01,2013-07-01 03:07:00,
2013-06-30 23:12:00,65.0,64.4,29.80,NNE,23,0.0,0.0,98,0.00,,SKC,0.46,VWS V14.01,2013-07-01 03:12:00,
2013-06-30 23:17:00,65.1,64.5,29.80,NNE,23,0.0,0.0,98,0.00,,SKC,0.46,VWS V14.01,2013-07-01 03:17:00,
2013-06-30 23:22:00,65.1,64.5,29.80,NNE,23,0.0,0.0,98,0.00,,SKC,0.46,VWS V14.01,2013-07-01 03:22:00,
2013-06-30 23:27:00,65.1,64.5,29.80,NNE,23,0.0,0.0,98,0.00,,SKC,0.46,VWS V14.01,2013-07-01 03:27:00,
2013-06-30 23:30:00,65.1,64.5,29.80,NNE,23,0.0,0.0,98,0.00,,SKC,0.46,VWS V14.01,2013-07-01 03:30:00,
2013-06-30 23:32:00,65.1,64.5,29.80,NNE,23,0.0,0.0,98,0.00,,SKC,0.46,VWS V14.01,2013-07-01 03:32:00,
2013-06-30 23:37:00,65.0,64.4,29.80,NNE,23,1.0,1.0,98,0.00,,SKC,0.46,VWS V14.01,2013-07-01 03:37:00,
2013-06-30 23:42:00,64.9,64.3,29.80,NNE,23,1.0,1.0,98,0.00,,SKC,0.46,VWS V14.01,2013-07-01 03:42:00,
2013-06-30 23:47:00,64.8,64.2,29.80,NNE,23,0.0,2.0,98,0.00,,SKC,0.46,VWS V14.01,2013-07-01 03:47:00,
2013-06-30 23:52:00,64.7,64.1,29.80,NNE,23,0.0,2.0,98,0.00,,SKC,0.46,VWS V14.01,2013-07-01 03:52:00,
2013-06-30 23:57:00,64.7,64.1,29.80,NNE,23,0.0,2.0,98,0.00,,SKC,0.46,VWS V14.01,2013-07-01 03:57:00,